Fairmont, MN

6:45 AM CST on January 24, 2017 (GMT -0600)
FudgeHome | | Change Station
Active Advisory: Winter Storm Warning

Elev 1178 ft 43.67 °N, 94.47 °W | Updated 12 seconds ago

Overcast
Overcast
30.3 °F
Feels Like 30 °F
N
0.0
Wind Variable Wind from NNE

Today
High -- | Low -- °F
--% Chance of Precip.
Yesterday
High -- | Low -- °F
Precip. -- in
Pressure 29.92 in
Visibility 10.0 miles
Clouds Overcast 1000 ft
Windchill 30 °F
Dew Point 29 °F
Humidity 96%
Rainfall 0.00 in
Snow Depth Not available.
7:41 AM 5:18 PM
Waning Crescent, 12% visible
METAR KFRM 241156Z AUTO 06005KT 10SM OVC010 M01/M02 A2987 RMK AO2 SLP132 T10061022 10000 21006 53004 FZRANO
Pressure 29.92 in
Visibility 10.0 miles
Clouds Overcast 1000 ft
Windchill 30 °F
Dew Point 29 °F
Humidity 96%
Rainfall 0.00 in
Snow Depth Not available.
7:41 AM 5:18 PM
Waning Crescent, 12% visible
METAR KFRM 241156Z AUTO 06005KT 10SM OVC010 M01/M02 A2987 RMK AO2 SLP132 T10061022 10000 21006 53004 FZRANO

Get Your Daily Forecast Email!

Thanks for signing up!

Be on the lookout for a verification email in your inbox.

You'll start receiving the daily forecast at 8 AM.

×

10-Day Weather Forecast

Almanac

Astronomy

Jan. 24, 2017 Rise Set
Actual Time
Civil Twilight
Nautical Twilight
Astronomical Twilight
Moon
Length of Visible Light
Length of Day
Tomorrow will be .
, % of the Moon is Illuminated

Today's Extremes

State Highs State Lows

Community

WunderPhotos

Upload Photos

1,962,540 photos uploaded!

WunderBlog® & News

Nearby

Air Quality

  Air Quality AQ Index Pollutant
Not available.

Snow Depth

Station Depth Elevation

Earthquake Activity

City Distance Mag. Time & Date
Minimum magnitude displayed is 2.5.

Coastal Water Temperatures

Place Temperature

Stations

Nearby Weather Stations

Station Location Temp. Windchill Dew Point Humidity Wind Precip. Elev Updated Type
                   

Watches & Warnings

Winter Storm Warning
Issued: 3:26 AM CST Jan. 24, 2017 – National Weather Service

... Winter Storm Warning now in effect from 3 PM this afternoon to
6 PM CST Wednesday...

* timing... accumulating snow will spread into the area after 3 PM
and continue into Wednesday afternoon

* main impact... accumulating snow from 7 to 11 inches is likely
and will make for difficult travel

* other impacts... blowing and drifting snow with low visibilities
possible Wednesday

Precautionary/preparedness actions...

A Winter Storm Warning for heavy snow means severe winter weather
conditions are expected or occurring. Significant amounts of
snow are forecast that will make travel dangerous. Only travel in
an emergency. If you must travel... keep an extra flashlight...
food... and water in your vehicle in case of an emergency.